Time;durP1;ratioP1;P1;durP2;ratioP2;P2;SDS_P1;SDS_P2;PMS_P1;PMS_P2;Temp;Humidity;BMP_temperature;BMP_pressure;BME280_temperature;BME280_humidity;BME280_pressure;Samples;Min_cycle;Max_cycle;Signal;HPM_P1;HPM_P2
2023/04/11 08:14:46;;;;;;;18.35;13.50;;;;;;;14.27;65.19;100420.69;5614227;31;131342;-56
2023/04/11 08:17:48;;;;;;;19.17;14.20;;;;;;;14.27;65.19;100420.69;5601368;31;34068;-56
2023/04/11 08:20:51;;;;;;;17.67;12.70;;;;;;;13.83;72.73;100410.56;5588751;31;33101;-57
2023/04/11 08:23:54;;;;;;;14.87;11.15;;;;;;;14.04;72.44;100409.03;5583451;31;33573;-57
2023/04/11 08:26:56;;;;;;;15.27;11.73;;;;;;;14.01;65.09;100406.16;5583403;32;33672;-57
2023/04/11 08:29:59;;;;;;;14.48;11.00;;;;;;;14.05;65.59;100401.75;5583677;32;33509;-56
2023/04/11 08:33:01;;;;;;;15.27;11.60;;;;;;;14.04;68.83;100403.66;5583215;32;33689;-56
2023/04/11 08:36:08;;;;;;;16.02;11.95;;;;;;;14.13;65.85;100392.16;5583531;32;34202;-57
2023/04/11 08:39:10;;;;;;;18.48;13.70;;;;;;;14.30;66.06;100385.03;5583104;31;33585;-56
2023/04/11 08:42:22;;;;;;;22.05;15.45;;;;;;;14.47;69.00;100384.34;5583552;32;33490;-56
2023/04/11 08:45:24;;;;;;;20.40;15.77;;;;;;;14.41;64.09;100374.00;5583381;32;33430;-56
2023/04/11 08:48:27;;;;;;;19.70;14.85;;;;;;;14.34;63.02;100360.94;5583260;31;33537;-57
2023/04/11 08:51:30;;;;;;;21.17;17.45;;;;;;;14.38;63.31;100361.12;5583312;32;33314;-55
2023/04/11 08:54:32;;;;;;;20.35;15.05;;;;;;;14.51;64.47;100350.31;5583355;32;34270;-55
2023/04/11 08:57:36;;;;;;;18.35;13.80;;;;;;;14.50;61.36;100340.62;5581889;32;32983;-53
2023/04/11 09:00:39;;;;;;;24.50;13.68;;;;;;;14.40;62.93;100340.81;5583224;31;33787;-53
2023/04/11 09:04:01;;;;;;;18.00;13.38;;;;;;;14.37;62.60;100335.22;5582951;31;34479;-53
2023/04/11 09:07:04;;;;;;;21.52;15.65;;;;;;;14.44;66.85;100324.84;5583186;32;34271;-54
2023/04/11 09:10:19;;;;;;;21.25;15.27;;;;;;;14.61;64.00;100332.28;5570894;32;34052;-54
2023/04/11 09:13:23;;;;;;;21.92;15.43;;;;;;;14.56;63.71;100330.47;5563380;32;34401;-53
2023/04/11 09:16:25;;;;;;;19.30;13.93;;;;;;;14.51;63.23;100330.62;5563425;32;33427;-55
2023/04/11 09:19:30;;;;;;;19.20;14.07;;;;;;;14.54;62.68;100330.00;5563407;32;33751;-54
2023/04/11 09:22:35;;;;;;;21.23;14.87;;;;;;;14.63;65.60;100330.84;5563402;32;33734;-54
2023/04/11 09:25:44;;;;;;;18.90;14.93;;;;;;;14.65;63.77;100320.53;5552670;32;33311;-55
2023/04/11 09:28:53;;;;;;;21.70;14.73;;;;;;;14.78;63.07;100302.69;5549994;32;34344;-55
2023/04/11 09:31:56;;;;;;;19.90;15.10;;;;;;;14.86;68.05;100301.91;5550440;32;33639;-55
2023/04/11 09:35:17;;;;;;;18.23;14.25;;;;;;;14.95;62.38;100300.06;5550184;32;33786;-55
2023/04/11 09:38:26;;;;;;;17.42;14.85;;;;;;;14.97;61.46;100292.47;5550107;32;34246;-55
2023/04/11 09:41:31;;;;;;;18.45;14.80;;;;;;;15.18;64.03;100294.59;5550101;32;33640;-55
2023/04/11 09:44:36;;;;;;;19.50;15.10;;;;;;;15.12;61.46;100283.12;5550226;32;33628;-55
2023/04/11 09:47:38;;;;;;;18.62;14.63;;;;;;;14.95;60.22;100286.56;5550165;32;33265;-55
2023/04/11 09:50:41;;;;;;;20.10;15.32;;;;;;;14.95;60.50;100283.88;5550187;32;34267;-55
2023/04/11 09:53:44;;;;;;;19.05;15.50;;;;;;;15.01;60.22;100289.94;5550190;32;33605;-55
2023/04/11 09:56:47;;;;;;;19.60;15.30;;;;;;;15.02;59.72;100288.81;5550108;32;33600;-55
2023/04/11 09:59:51;;;;;;;17.25;14.65;;;;;;;15.10;59.90;100274.56;5550382;32;33287;-55
2023/04/11 10:02:55;;;;;;;21.73;15.48;;;;;;;15.21;60.97;100273.16;5549539;32;33605;-55
2023/04/11 10:05:57;;;;;;;16.30;14.07;;;;;;;15.15;57.95;100263.59;5547837;32;33865;-55
2023/04/11 10:09:11;;;;;;;18.83;15.18;;;;;;;15.21;63.42;100256.16;5550068;32;33600;-55
2023/04/11 10:12:30;;;;;;;21.12;15.63;;;;;;;15.31;62.02;100255.06;5549924;32;33844;-55
2023/04/11 10:15:32;;;;;;;20.20;14.63;;;;;;;15.56;67.91;100251.59;5549830;32;34328;-55
2023/04/11 10:18:35;;;;;;;17.80;13.18;;;;;;;15.78;61.79;100250.72;5550117;32;33574;-55
2023/04/11 10:21:39;;;;;;;17.15;13.90;;;;;;;15.63;58.43;100251.13;5549837;32;33575;-55
2023/04/11 10:25:15;;;;;;;21.40;14.23;;;;;;;15.63;55.89;100248.44;5549795;32;33636;-55
2023/04/11 10:28:29;;;;;;;;;;;;;;;15.58;61.52;100237.78;5550280;32;33637;-55
2023/04/11 10:32:04;;;;;;;18.98;14.95;;;;;;;15.54;59.56;100217.94;5549908;32;33833;-55
2023/04/11 10:35:15;;;;;;;18.07;14.43;;;;;;;15.66;68.05;100215.38;5549223;32;34281;-55
2023/04/11 10:38:47;;;;;;;20.80;16.05;;;;;;;15.91;66.80;100219.22;5549351;32;33836;-55
2023/04/11 10:41:49;;;;;;;24.12;16.23;;;;;;;16.01;59.24;100216.19;5549675;32;33692;-55
2023/04/11 10:45:13;;;;;;;25.23;16.05;;;;;;;16.10;61.18;100205.38;5549720;32;33606;-55
2023/04/11 10:48:15;;;;;;;21.55;16.85;;;;;;;16.15;59.65;100199.78;5549658;32;33669;-55
2023/04/11 10:51:28;;;;;;;24.63;17.42;;;;;;;16.02;60.02;100196.13;5549637;32;33628;-55
2023/04/11 10:54:31;;;;;;;23.62;18.77;;;;;;;16.18;67.68;100188.31;5549797;32;33771;-56
2023/04/11 10:58:02;;;;;;;24.95;18.05;;;;;;;16.15;57.41;100186.25;5549759;32;33661;-55
2023/04/11 11:01:11;;;;;;;21.87;16.73;;;;;;;16.10;58.18;100183.72;5549790;32;34408;-55
2023/04/11 11:04:35;;;;;;;23.92;18.80;;;;;;;16.26;64.34;100179.41;5549380;32;34345;-55
2023/04/11 11:07:37;;;;;;;21.62;15.45;;;;;;;16.23;59.94;100173.84;5549536;32;33551;-55
2023/04/11 11:10:42;;;;;;;23.10;16.23;;;;;;;16.34;66.65;100165.03;5549584;32;33846;-55
2023/04/11 11:13:52;;;;;;;20.77;16.05;;;;;;;16.45;62.23;100163.56;5549469;32;34304;-55
2023/04/11 11:16:54;;;;;;;20.12;16.73;;;;;;;16.51;63.64;100158.75;5549719;32;33201;-55
2023/04/11 11:19:56;;;;;;;23.50;15.18;;;;;;;16.33;55.83;100158.03;5549388;32;33903;-55
2023/04/11 11:23:01;;;;;;;25.10;19.17;;;;;;;16.28;57.65;100147.41;5549565;32;33638;-55
2023/04/11 11:26:03;;;;;;;20.37;16.25;;;;;;;16.24;53.17;100143.75;5549630;32;33575;-55
2023/04/11 11:29:07;;;;;;;19.15;15.70;;;;;;;16.23;56.44;100131.34;5549431;32;33643;-55
2023/04/11 11:32:20;;;;;;;20.30;14.38;;;;;;;16.23;52.32;100135.97;5549588;32;33764;-55
2023/04/11 11:35:23;;;;;;;19.23;13.98;;;;;;;16.27;50.77;100136.91;5549238;32;33687;-55
2023/04/11 11:38:27;;;;;;;18.65;14.05;;;;;;;16.27;53.53;100131.50;5549387;32;33564;-55
2023/04/11 11:41:32;;;;;;;18.15;13.70;;;;;;;16.40;53.94;100134.00;5549301;32;33564;-55
2023/04/11 11:44:34;;;;;;;17.92;13.00;;;;;;;16.47;52.88;100124.56;5549324;32;33468;-55
2023/04/11 11:47:55;;;;;;;16.35;13.90;;;;;;;16.48;52.23;100124.22;5548968;32;34273;-55
2023/04/11 11:50:57;;;;;;;15.88;12.50;;;;;;;16.44;50.89;100118.69;5549202;32;33911;-55
2023/04/11 11:54:10;;;;;;;17.67;12.18;;;;;;;16.44;53.94;100112.47;5548801;32;34334;-56
2023/04/11 11:57:21;;;;;;;18.75;13.15;;;;;;;16.62;60.32;100110.47;5549242;32;34464;-55
2023/04/11 12:00:25;;;;;;;15.57;11.90;;;;;;;16.48;52.73;100110.72;5549161;32;33366;-56
2023/04/11 12:03:28;;;;;;;16.02;11.40;;;;;;;16.48;51.06;100120.75;5549122;32;34343;-55
2023/04/11 12:06:31;;;;;;;15.52;12.00;;;;;;;16.50;52.36;100113.88;5549244;32;34246;-56
2023/04/11 12:09:33;;;;;;;14.30;11.43;;;;;;;16.47;52.26;100106.44;5549082;32;34370;-56
2023/04/11 12:12:40;;;;;;;17.00;12.95;;;;;;;16.48;52.91;100112.63;5549025;32;33586;-55
2023/04/11 12:15:45;;;;;;;17.50;13.43;;;;;;;16.49;52.06;100101.50;5548801;32;33213;-55
2023/04/11 12:18:47;;;;;;;18.60;14.50;;;;;;;16.57;52.87;100100.63;5549171;32;33695;-55
2023/04/11 12:21:50;;;;;;;17.60;13.95;;;;;;;16.78;56.09;100102.63;5549041;32;33671;-55
2023/04/11 12:25:05;;;;;;;17.60;13.45;;;;;;;16.81;50.24;100102.75;5548608;32;34445;-56
2023/04/11 12:28:08;;;;;;;14.77;12.17;;;;;;;16.86;49.06;100113.41;5548894;32;33554;-55
2023/04/11 12:31:11;;;;;;;15.95;11.23;;;;;;;16.96;52.38;100103.31;5548841;32;33584;-55
2023/04/11 12:34:13;;;;;;;12.80;10.90;;;;;;;16.99;47.83;100103.44;5548765;32;33692;-56
2023/04/11 12:37:15;;;;;;;13.25;10.70;;;;;;;17.05;49.44;100096.72;5548653;32;33560;-56
2023/04/11 12:40:18;;;;;;;13.10;10.32;;;;;;;17.05;47.47;100098.59;5548237;32;34430;-56
2023/04/11 12:43:20;;;;;;;15.88;11.93;;;;;;;17.14;50.95;100096.62;5548558;32;33538;-56
2023/04/11 12:46:23;;;;;;;14.68;11.07;;;;;;;17.15;45.80;100084.66;5548449;32;33688;-55
2023/04/11 12:49:27;;;;;;;15.88;12.13;;;;;;;17.03;47.94;100084.63;5548576;32;33609;-55
2023/04/11 12:52:29;;;;;;;14.90;11.73;;;;;;;17.02;46.73;100077.59;5548447;32;33339;-56
2023/04/11 12:55:32;;;;;;;18.55;14.02;;;;;;;17.06;47.92;100076.62;5548165;32;33578;-56
2023/04/11 12:58:36;;;;;;;17.35;13.85;;;;;;;17.09;47.43;100073.25;5548247;32;34346;-55
2023/04/11 13:01:38;;;;;;;17.02;13.00;;;;;;;17.04;49.24;100068.03;5550887;32;34401;-55
2023/04/11 13:04:40;;;;;;;17.35;12.88;;;;;;;17.02;48.97;100062.16;5551017;32;33601;-55
2023/04/11 13:07:43;;;;;;;14.32;11.75;;;;;;;17.00;48.69;100060.91;5558175;32;33270;-55
2023/04/11 13:10:47;;;;;;;17.92;14.18;;;;;;;17.11;52.46;100051.25;5558233;32;33266;-56
2023/04/11 13:13:50;;;;;;;17.45;12.70;;;;;;;17.07;48.20;100050.31;5559164;32;33615;-56
2023/04/11 13:16:53;;;;;;;12.90;9.23;;;;;;;17.03;47.59;100038.56;5558239;32;33555;-56
2023/04/11 13:19:55;;;;;;;11.75;9.57;;;;;;;17.00;46.67;100039.25;5560018;32;33531;-55
2023/04/11 13:22:57;;;;;;;11.12;9.60;;;;;;;17.05;48.66;100026.28;5557925;32;33467;-56
2023/04/11 13:25:59;;;;;;;11.70;9.75;;;;;;;16.95;45.17;100028.59;5559507;32;34207;-56
2023/04/11 13:29:02;;;;;;;13.93;10.30;;;;;;;16.94;49.00;100019.69;5558454;32;33414;-55
2023/04/11 13:32:05;;;;;;;13.80;9.85;;;;;;;16.83;44.51;100019.31;5558607;32;34038;-56
2023/04/11 13:35:08;;;;;;;11.73;9.98;;;;;;;16.83;48.65;100015.81;5558550;32;33589;-55
2023/04/11 13:38:11;;;;;;;11.48;9.75;;;;;;;16.81;45.64;100012.63;5559380;32;34431;-56
2023/04/11 13:41:13;;;;;;;13.13;9.13;;;;;;;16.81;45.71;100007.22;5558022;32;34265;-56
2023/04/11 13:44:16;;;;;;;13.07;9.07;;;;;;;16.88;47.05;100013.66;5559929;32;33129;-56
2023/04/11 13:47:19;;;;;;;10.48;8.13;;;;;;;16.88;46.62;100005.53;5558065;32;33655;-56
2023/04/11 13:50:21;;;;;;;9.95;8.30;;;;;;;16.88;46.46;100000.13;5559289;32;33768;-55
2023/04/11 13:53:23;;;;;;;8.98;7.60;;;;;;;16.95;49.23;99996.09;5558500;32;33797;-55
2023/04/11 13:56:26;;;;;;;9.85;8.70;;;;;;;16.97;45.58;100002.00;5558547;32;33620;-55
2023/04/11 13:59:28;;;;;;;11.90;8.52;;;;;;;16.84;44.85;99999.22;5558640;32;33700;-55
2023/04/11 14:02:30;;;;;;;10.23;8.15;;;;;;;16.83;44.83;99994.16;5558020;32;34385;-56
2023/04/11 14:05:34;;;;;;;9.85;8.13;;;;;;;16.82;45.19;99996.06;5559260;32;33598;-55
2023/04/11 14:08:36;;;;;;;10.40;8.38;;;;;;;16.85;47.80;100000.00;5559568;32;33321;-56
2023/04/11 14:11:39;;;;;;;10.80;7.97;;;;;;;16.82;46.46;99998.78;5551914;32;33571;-55
2023/04/11 14:14:41;;;;;;;11.85;8.18;;;;;;;16.77;50.25;99995.47;5550172;32;33191;-55
2023/04/11 14:17:45;;;;;;;11.32;7.82;;;;;;;16.70;45.23;99995.19;5549950;32;33550;-55
